Terminal Aerodrome Forecast
Issued by NWS

Home | Current Version | Previous Version | Text Only | Print | Product List | Glossary On
Versions: 1 2 3 4 5 6 7 8 9 10 11 12 13
000
FTUS44 KTSA 221100
TAFMLC
TAF
KMLC 221120Z 2212/2312 20011KT P6SM SKC
     FM221600 19011G18KT P6SM FEW060 FEW250
     FM230000 18006KT P6SM FEW250=

USA.gov is the U.S. government's official web portal to all federal, state and local government web resources and services.